createdAt,value
2019-03-26T00:01:45.604Z,58.43
2019-03-26T00:04:16.698Z,52.93
2019-03-26T00:06:47.798Z,53.63
2019-03-26T00:09:18.923Z,54.27
2019-03-26T00:11:50.437Z,60.93
2019-03-26T00:14:21.512Z,57.80
2019-03-26T00:16:52.658Z,55.67
2019-03-26T00:19:23.815Z,54.83
2019-03-26T00:21:54.967Z,52.70
2019-03-26T00:24:25.923Z,55.00
2019-03-26T00:26:57.034Z,48.57
2019-03-26T00:29:28.067Z,45.23
2019-03-26T00:31:59.081Z,61.10
2019-03-26T00:34:31.807Z,50.50
2019-03-26T00:37:02.874Z,47.87
2019-03-26T00:39:34.073Z,49.10
2019-03-26T00:42:05.057Z,50.63
2019-03-26T00:44:36.095Z,37.10
2019-03-26T00:47:07.195Z,48.87
2019-03-26T00:49:38.340Z,47.07
2019-03-26T00:52:09.442Z,50.73
2019-03-26T00:54:40.557Z,56.37
2019-03-26T00:57:12.692Z,50.77
2019-03-26T00:59:44.812Z,56.73
2019-03-26T01:02:15.877Z,55.53
2019-03-26T01:04:46.969Z,54.90
2019-03-26T01:07:18.059Z,53.87
2019-03-26T01:09:50.139Z,54.33
2019-03-26T01:12:21.137Z,53.67
2019-03-26T01:14:52.205Z,52.73
2019-03-26T01:17:23.237Z,37.53
2019-03-26T01:19:54.257Z,48.33
2019-03-26T01:22:25.233Z,49.73
2019-03-26T01:24:56.267Z,51.80
2019-03-26T01:27:27.497Z,56.70
2019-03-26T01:30:00.336Z,58.27
2019-03-26T01:32:31.447Z,54.20
2019-03-26T01:35:02.526Z,43.60
2019-03-26T01:37:33.547Z,51.60
2019-03-26T01:40:04.905Z,48.30
2019-03-26T01:42:36.039Z,51.03
2019-03-26T01:45:08.417Z,45.73
2019-03-26T01:47:39.565Z,51.73
2019-03-26T01:50:10.637Z,51.97
2019-03-26T01:52:41.626Z,52.27
2019-03-26T01:55:12.634Z,60.03
2019-03-26T01:57:44.828Z,51.97
2019-03-26T02:00:15.884Z,58.10
2019-03-26T02:02:47.325Z,51.53
2019-03-26T02:05:18.399Z,51.37
2019-03-26T02:07:49.428Z,45.80
2019-03-26T02:10:20.479Z,42.60
2019-03-26T02:12:53.759Z,50.27
2019-03-26T02:15:34.763Z,46.97
2019-03-26T02:18:06.175Z,49.03
2019-03-26T02:20:37.278Z,47.57
2019-03-26T02:23:08.233Z,39.07
2019-03-26T02:25:39.406Z,51.83
2019-03-26T02:28:10.369Z,43.90
2019-03-26T02:30:41.462Z,58.83
2019-03-26T02:33:12.441Z,48.33
2019-03-26T02:35:43.446Z,51.50
2019-03-26T02:38:14.448Z,34.13
2019-03-26T02:40:45.541Z,56.13
2019-03-26T02:43:16.632Z,46.27
2019-03-26T02:45:47.614Z,56.97
2019-03-26T02:48:18.690Z,51.03
2019-03-26T02:50:49.735Z,56.33
2019-03-26T02:53:20.770Z,50.57
2019-03-26T02:55:51.834Z,46.67
2019-03-26T02:58:22.934Z,43.40
2019-03-26T03:00:53.968Z,58.80
2019-03-26T03:03:24.961Z,28.23
2019-03-26T03:05:56.073Z,31.57
2019-03-26T03:08:27.141Z,46.83
2019-03-26T03:10:59.573Z,48.47
2019-03-26T03:13:30.541Z,42.73
2019-03-26T03:16:01.564Z,34.87
2019-03-26T03:18:33.563Z,44.37
2019-03-26T03:21:04.831Z,37.80
2019-03-26T03:23:35.908Z,43.13
2019-03-26T03:26:07.162Z,43.87
2019-03-26T03:28:38.143Z,40.37
2019-03-26T03:31:09.177Z,46.37
2019-03-26T03:33:40.198Z,43.43
2019-03-26T03:36:11.261Z,33.57
2019-03-26T03:38:42.403Z,33.80
2019-03-26T03:41:13.345Z,39.87
2019-03-26T03:43:47.202Z,31.20
2019-03-26T03:46:18.521Z,34.70
2019-03-26T03:48:50.099Z,31.77
2019-03-26T03:51:24.848Z,40.47
2019-03-26T03:53:57.098Z,43.73
2019-03-26T03:56:31.416Z,42.53
2019-03-26T03:59:03.747Z,33.27
2019-03-26T04:01:34.824Z,41.53
2019-03-26T04:04:06.020Z,49.70
2019-03-26T04:06:37.113Z,45.33
2019-03-26T04:09:08.307Z,45.63
2019-03-26T04:11:39.316Z,48.93
2019-03-26T04:14:10.366Z,46.40
2019-03-26T04:16:41.291Z,52.77
2019-03-26T04:19:13.541Z,52.10
2019-03-26T04:21:44.699Z,51.50
2019-03-26T04:24:15.799Z,58.70
2019-03-26T04:26:46.850Z,53.13
2019-03-26T04:29:17.907Z,54.90
2019-03-26T04:31:48.949Z,61.73
2019-03-26T04:34:22.590Z,50.47
2019-03-26T04:36:52.985Z,53.90
2019-03-26T04:39:24.317Z,52.23
2019-03-26T04:41:55.387Z,44.40
2019-03-26T04:44:26.447Z,51.20
2019-03-26T04:46:57.416Z,49.90
2019-03-26T04:49:28.465Z,57.77
2019-03-26T04:51:59.849Z,55.37
2019-03-26T04:54:31.060Z,62.70
2019-03-26T04:57:02.084Z,56.53
2019-03-26T04:59:33.190Z,54.67
2019-03-26T05:02:04.551Z,54.27
2019-03-26T05:04:35.888Z,69.87
2019-03-26T05:07:06.990Z,60.17
2019-03-26T05:09:38.029Z,54.83
2019-03-26T05:12:09.040Z,60.20
2019-03-26T05:14:41.140Z,62.47
2019-03-26T05:17:12.310Z,57.60
2019-03-26T05:19:54.881Z,61.50
2019-03-26T05:22:25.834Z,56.63
2019-03-26T05:24:56.802Z,48.03
2019-03-26T05:27:27.771Z,57.40
2019-03-26T05:29:58.792Z,54.40
2019-03-26T05:32:29.937Z,46.83
2019-03-26T05:35:00.945Z,39.33
2019-03-26T05:37:32.095Z,49.73
2019-03-26T05:40:03.451Z,49.23
2019-03-26T05:42:34.715Z,47.63
2019-03-26T05:45:06.590Z,53.23
2019-03-26T05:47:37.740Z,59.73
2019-03-26T05:50:10.251Z,60.43
2019-03-26T05:52:41.405Z,50.10
2019-03-26T05:55:12.776Z,48.57
2019-03-26T05:57:43.895Z,48.73
2019-03-26T06:00:20.799Z,48.07
2019-03-26T06:02:52.880Z,48.77
2019-03-26T06:05:23.905Z,40.07
2019-03-26T06:13:44.541Z,36.77
2019-03-26T06:16:15.876Z,36.13
2019-03-26T06:18:48.359Z,36.10
2019-03-26T06:21:19.515Z,38.33
2019-03-26T06:26:17.610Z,32.37
2019-03-26T06:28:48.750Z,36.23
2019-03-26T06:31:19.842Z,33.47
2019-03-26T06:33:51.205Z,35.67
2019-03-26T06:36:25.121Z,31.53
2019-03-26T06:38:56.503Z,28.43
2019-03-26T06:41:27.726Z,28.07
2019-03-26T06:43:58.772Z,28.80
2019-03-26T06:46:29.964Z,25.90
2019-03-26T06:49:01.236Z,27.67
2019-03-26T06:51:32.353Z,32.10
2019-03-26T06:54:03.401Z,29.70
2019-03-26T06:56:35.625Z,28.63
2019-03-26T06:59:07.955Z,22.97
2019-03-26T07:01:39.300Z,28.83
2019-03-26T07:04:10.585Z,30.30
2019-03-26T07:06:42.862Z,26.20
2019-03-26T07:09:14.589Z,22.23
2019-03-26T07:11:45.695Z,21.50
2019-03-26T07:14:16.973Z,23.03
2019-03-26T07:16:48.135Z,21.73
2019-03-26T07:19:19.153Z,19.77
2019-03-26T07:21:50.358Z,18.47
2019-03-26T07:24:21.610Z,20.40
2019-03-26T07:26:52.822Z,17.87
2019-03-26T07:29:24.017Z,19.80
2019-03-26T07:31:56.218Z,23.33
2019-03-26T07:34:27.455Z,22.77
2019-03-26T07:36:58.642Z,18.37
2019-03-26T07:39:29.797Z,22.17
2019-03-26T07:42:00.892Z,22.50
2019-03-26T07:44:32.282Z,18.47
2019-03-26T07:47:03.483Z,19.33
2019-03-26T07:49:34.757Z,16.47
2019-03-26T07:52:05.986Z,25.07
2019-03-26T07:54:37.211Z,22.63
2019-03-26T07:57:08.396Z,14.93
2019-03-26T07:59:39.648Z,20.83
2019-03-26T08:02:11.084Z,31.63
2019-03-26T08:04:42.180Z,39.30
2019-03-26T08:07:13.311Z,36.83
2019-03-26T08:09:44.462Z,41.40
2019-03-26T08:12:15.738Z,41.83
2019-03-26T08:14:46.952Z,46.30
2019-03-26T08:17:18.054Z,39.20
2019-03-26T08:19:49.347Z,36.20
2019-03-26T08:22:20.535Z,36.27
2019-03-26T08:24:51.818Z,32.37
2019-03-26T08:27:23.160Z,39.07
2019-03-26T08:29:54.443Z,38.97
2019-03-26T08:32:25.861Z,33.90
2019-03-26T08:34:57.233Z,28.10
2019-03-26T08:37:28.551Z,32.80
2019-03-26T08:40:00.391Z,25.47
2019-03-26T08:42:31.793Z,21.80
2019-03-26T08:45:03.170Z,23.27
2019-03-26T08:47:34.535Z,22.97
2019-03-26T08:50:08.457Z,28.00
2019-03-26T08:52:39.736Z,23.87
2019-03-26T08:55:11.850Z,26.43
2019-03-26T08:57:43.997Z,32.40
2019-03-26T09:00:15.918Z,28.67
2019-03-26T09:02:47.237Z,24.53
2019-03-26T09:05:18.660Z,21.90
2019-03-26T09:07:49.954Z,25.03
2019-03-26T09:10:21.420Z,28.47
2019-03-26T09:12:52.779Z,27.20
2019-03-26T09:15:24.080Z,32.03
2019-03-26T09:17:55.357Z,25.53
2019-03-26T09:20:26.708Z,28.10
2019-03-26T09:22:57.981Z,28.57
2019-03-26T09:25:29.304Z,28.80
2019-03-26T09:28:00.557Z,37.33
2019-03-26T09:30:31.816Z,39.53
2019-03-26T09:33:03.055Z,25.77
2019-03-26T09:35:34.318Z,36.80
2019-03-26T09:38:07.658Z,36.47
2019-03-26T09:40:38.983Z,36.03
2019-03-26T09:43:10.349Z,40.60
2019-03-26T09:45:41.703Z,36.60
2019-03-26T09:48:12.975Z,36.27
2019-03-26T09:50:44.318Z,32.10
2019-03-26T09:53:15.616Z,31.03
2019-03-26T09:55:47.057Z,41.97
2019-03-26T09:58:18.341Z,34.77
2019-03-26T10:00:49.835Z,32.53
2019-03-26T10:03:21.416Z,32.10
2019-03-26T10:05:52.746Z,31.03
2019-03-26T10:08:24.032Z,35.77
2019-03-26T10:10:55.218Z,38.80
2019-03-26T10:13:26.697Z,32.43
2019-03-26T10:15:57.896Z,31.60
2019-03-26T10:18:29.158Z,28.13
2019-03-26T10:21:00.380Z,33.10
2019-03-26T10:23:31.658Z,34.77
2019-03-26T10:26:03.194Z,29.33
2019-03-26T10:28:34.673Z,25.80
2019-03-26T10:31:05.965Z,30.37
2019-03-26T10:33:38.269Z,30.30
2019-03-26T10:36:09.559Z,29.20
2019-03-26T10:38:40.762Z,32.03
2019-03-26T10:41:11.863Z,32.60
2019-03-26T10:43:42.973Z,30.67
2019-03-26T10:46:14.148Z,30.43
2019-03-26T10:48:48.115Z,25.47
2019-03-26T10:51:19.301Z,28.40
2019-03-26T10:53:50.507Z,22.13
2019-03-26T10:56:21.564Z,29.30
2019-03-26T10:58:52.831Z,30.60
2019-03-26T11:01:24.012Z,20.70
2019-03-26T11:03:55.097Z,24.93
2019-03-26T11:06:26.344Z,27.97
2019-03-26T11:08:57.812Z,26.50
2019-03-26T11:11:28.871Z,32.33
2019-03-26T11:14:00.094Z,24.97
2019-03-26T11:16:31.340Z,29.03
2019-03-26T11:19:02.518Z,28.23
2019-03-26T11:21:34.551Z,26.20
2019-03-26T11:24:06.128Z,25.57
2019-03-26T11:26:37.129Z,24.73
2019-03-26T11:29:10.221Z,27.37
2019-03-26T11:31:41.288Z,26.60
2019-03-26T11:34:12.430Z,24.97
2019-03-26T11:36:43.895Z,21.90
2019-03-26T11:39:14.920Z,24.73
2019-03-26T11:41:46.263Z,22.47
2019-03-26T11:44:17.515Z,23.13
2019-03-26T11:46:48.770Z,22.10
2019-03-26T11:49:20.169Z,23.13
2019-03-26T11:51:51.230Z,19.40
2019-03-26T11:54:22.408Z,27.80
2019-03-26T11:56:53.598Z,31.17
2019-03-26T11:59:24.829Z,25.07
2019-03-26T12:01:56.142Z,21.37
2019-03-26T12:04:27.436Z,27.27
2019-03-26T12:06:58.443Z,22.17
2019-03-26T12:09:29.647Z,20.10
2019-03-26T12:12:06.056Z,22.53
2019-03-26T12:14:37.332Z,24.93
2019-03-26T12:17:08.471Z,22.70
2019-03-26T12:19:39.650Z,26.00
2019-03-26T12:22:10.694Z,22.20
2019-03-26T12:24:41.770Z,27.27
2019-03-26T12:27:12.784Z,18.40
2019-03-26T12:29:43.882Z,15.80
2019-03-26T12:32:14.968Z,18.50
2019-03-26T12:34:46.233Z,19.23
2019-03-26T12:37:17.471Z,20.87
2019-03-26T12:39:58.879Z,15.63
2019-03-26T12:42:21.392Z,16.30
2019-03-26T12:44:52.591Z,14.37
2019-03-26T12:47:24.772Z,14.97
2019-03-26T12:49:56.222Z,13.53
2019-03-26T12:52:27.493Z,16.17
2019-03-26T12:54:58.768Z,13.03
2019-03-26T12:57:30.027Z,11.63
2019-03-26T13:00:01.448Z,9.93
2019-03-26T13:02:35.959Z,13.70
2019-03-26T13:05:07.881Z,10.13
2019-03-26T13:07:40.800Z,12.97
2019-03-26T13:10:14.567Z,7.80
2019-03-26T13:12:47.156Z,13.20
2019-03-26T13:15:18.349Z,15.53
2019-03-26T13:17:49.619Z,12.77
2019-03-26T13:20:20.805Z,12.90
2019-03-26T13:22:52.035Z,12.53
2019-03-26T13:25:23.382Z,14.97
2019-03-26T13:27:54.748Z,13.03
2019-03-26T13:30:26.012Z,12.37
2019-03-26T13:32:57.337Z,13.20
2019-03-26T13:35:28.601Z,14.03
2019-03-26T13:37:59.789Z,15.03
2019-03-26T13:40:30.999Z,9.77
2019-03-26T13:43:02.439Z,17.53
2019-03-26T13:45:33.890Z,10.00
2019-03-26T13:48:05.191Z,17.80
2019-03-26T13:50:36.489Z,11.03
2019-03-26T13:53:07.708Z,13.80
2019-03-26T13:55:38.808Z,11.67
2019-03-26T13:58:10.113Z,13.10
2019-03-26T14:00:41.715Z,13.10
2019-03-26T14:03:12.931Z,12.60
2019-03-26T14:05:44.111Z,16.47
2019-03-26T14:08:15.470Z,11.33
2019-03-26T14:10:46.626Z,11.17
2019-03-26T14:13:17.994Z,11.43
2019-03-26T14:15:49.273Z,18.60
2019-03-26T14:18:22.169Z,14.40
2019-03-26T14:20:53.359Z,11.77
2019-03-26T14:23:24.461Z,10.87
2019-03-26T14:25:55.604Z,10.03
2019-03-26T14:28:26.749Z,13.53
2019-03-26T14:30:57.750Z,9.17
2019-03-26T14:33:28.805Z,11.27
2019-03-26T14:35:59.816Z,12.37
2019-03-26T14:38:30.998Z,11.87
2019-03-26T14:41:02.131Z,1.80
2019-03-26T14:43:33.337Z,217.37
2019-03-26T14:46:04.768Z,3.90
2019-03-26T14:48:36.072Z,66.53
2019-03-26T14:51:07.291Z,7.70
2019-03-26T14:53:38.360Z,8.67
2019-03-26T14:56:09.697Z,7.27
2019-03-26T14:58:41.059Z,8.77
2019-03-26T15:01:12.642Z,8.50
2019-03-26T15:03:43.911Z,13.80
2019-03-26T15:06:16.328Z,5.07
2019-03-26T15:08:47.478Z,7.80
2019-03-26T15:11:18.651Z,6.47
2019-03-26T15:13:49.804Z,2.53
2019-03-26T15:16:20.960Z,2.53
2019-03-26T15:18:52.247Z,3.73
2019-03-26T15:21:23.348Z,6.57
2019-03-26T15:23:54.491Z,7.67
2019-03-26T15:26:26.761Z,6.17
2019-03-26T15:28:59.354Z,4.20
2019-03-26T15:31:30.317Z,7.83
2019-03-26T15:34:01.775Z,3.17
2019-03-26T15:36:32.885Z,8.97
2019-03-26T15:39:05.483Z,4.93
2019-03-26T15:41:36.627Z,9.20
2019-03-26T15:44:14.526Z,5.67
2019-03-26T15:46:45.907Z,5.00
2019-03-26T15:49:17.313Z,4.73
2019-03-26T15:51:48.409Z,8.37
2019-03-26T15:54:19.358Z,6.67
2019-03-26T15:56:50.405Z,7.77
2019-03-26T15:59:21.543Z,8.70
2019-03-26T16:01:52.588Z,9.73
2019-03-26T16:04:23.666Z,10.57
2019-03-26T16:06:54.982Z,8.80
2019-03-26T16:09:26.158Z,10.60
2019-03-26T16:11:57.142Z,7.07
2019-03-26T16:14:28.357Z,7.27
2019-03-26T16:16:59.748Z,11.03
2019-03-26T16:19:32.916Z,5.10
2019-03-26T16:22:03.824Z,11.07
2019-03-26T16:24:35.099Z,7.60
2019-03-26T16:27:06.183Z,6.53
2019-03-26T16:29:37.236Z,10.93
2019-03-26T16:32:08.345Z,10.83
2019-03-26T16:34:39.458Z,11.13
2019-03-26T16:37:10.657Z,12.20
2019-03-26T16:39:41.959Z,11.63
2019-03-26T16:42:12.919Z,9.43
2019-03-26T16:44:44.117Z,11.70
2019-03-26T16:47:15.474Z,5.80
2019-03-26T16:49:46.576Z,6.33
2019-03-26T16:52:17.788Z,3.77
2019-03-26T16:54:49.001Z,10.33
2019-03-26T16:57:20.205Z,9.33
2019-03-26T16:59:52.406Z,5.50
2019-03-26T17:02:23.848Z,11.30
2019-03-26T17:04:55.096Z,7.53
2019-03-26T17:07:29.501Z,6.83
2019-03-26T17:10:00.777Z,10.60
2019-03-26T17:12:33.190Z,11.57
2019-03-26T17:15:05.163Z,6.10
2019-03-26T17:17:37.636Z,5.63
2019-03-26T17:20:08.997Z,0.23
2019-03-26T17:22:40.174Z,2.23
2019-03-26T17:25:11.455Z,0.10
2019-03-26T17:27:42.606Z,0.10
2019-03-26T17:30:14.126Z,0.30
2019-03-26T17:32:45.348Z,0.43
2019-03-26T17:35:16.731Z,0.20
2019-03-26T17:37:58.902Z,1.67
2019-03-26T17:40:22.956Z,0.33
2019-03-26T17:42:55.158Z,0.37
2019-03-26T17:45:26.497Z,0.10
2019-03-26T17:47:57.692Z,0.87
2019-03-26T17:50:28.928Z,0.20
2019-03-26T17:53:00.356Z,0.20
2019-03-26T17:55:31.465Z,1.23
2019-03-26T17:58:04.374Z,0.10
2019-03-26T18:00:43.013Z,1.07
2019-03-26T18:03:25.820Z,0.83
2019-03-26T18:05:47.368Z,0.60
2019-03-26T18:08:19.853Z,0.40
2019-03-26T18:10:51.226Z,0.30
2019-03-26T18:13:25.713Z,0.50
2019-03-26T18:15:56.884Z,0.10
2019-03-26T18:18:28.159Z,0.20
2019-03-26T18:21:00.997Z,0.10
2019-03-26T18:23:32.281Z,0.20
2019-03-26T18:26:06.761Z,1.07
2019-03-26T18:28:38.525Z,0.20
2019-03-26T18:31:09.914Z,0.20
2019-03-26T18:33:44.685Z,0.70
2019-03-26T18:36:16.269Z,6.43
2019-03-26T18:38:47.870Z,0.20
2019-03-26T18:41:19.296Z,0.43
2019-03-26T18:43:52.075Z,0.30
2019-03-26T18:46:23.118Z,1.50
2019-03-26T18:48:54.262Z,0.20
2019-03-26T18:51:29.159Z,0.40
2019-03-26T18:54:00.537Z,0.20
2019-03-26T18:56:32.911Z,0.37
2019-03-26T18:59:04.267Z,1.13
2019-03-26T19:01:35.702Z,0.20
2019-03-26T19:04:07.691Z,0.47
2019-03-26T19:06:39.019Z,0.30
2019-03-26T19:09:11.506Z,0.27
2019-03-26T19:11:43.157Z,1.00
2019-03-26T19:14:14.368Z,0.70
2019-03-26T19:16:45.556Z,0.20
2019-03-26T19:19:16.991Z,0.80
2019-03-26T19:21:48.428Z,0.30
2019-03-26T19:24:19.790Z,0.77
2019-03-26T19:26:56.861Z,0.33
2019-03-26T19:29:29.449Z,0.40
2019-03-26T19:32:00.591Z,0.77
2019-03-26T19:34:31.808Z,11.17
2019-03-26T19:37:03.188Z,0.40
2019-03-26T19:39:34.856Z,0.67
2019-03-26T19:42:06.271Z,0.93
2019-03-26T19:44:37.540Z,0.20
2019-03-26T19:47:08.664Z,0.50
2019-03-26T19:49:39.937Z,0.20
2019-03-26T19:52:11.025Z,0.13
2019-03-26T19:54:42.167Z,0.10
2019-03-26T19:57:13.362Z,0.10
2019-03-26T19:59:44.807Z,0.23
2019-03-26T20:02:16.079Z,0.10
2019-03-26T20:04:47.174Z,0.10
2019-03-26T20:07:18.350Z,0.43
2019-03-26T20:09:49.650Z,0.43
2019-03-26T20:12:22.378Z,0.10
2019-03-26T20:15:04.177Z,2.87
2019-03-26T20:17:36.550Z,0.50
2019-03-26T20:20:09.544Z,0.10
2019-03-26T20:22:40.814Z,1.03
2019-03-26T20:25:13.795Z,0.10
2019-03-26T20:27:45.063Z,0.20
2019-03-26T20:30:17.303Z,0.10
2019-03-26T20:32:48.615Z,0.33
2019-03-26T20:35:19.860Z,0.20
2019-03-26T20:37:51.324Z,0.40
2019-03-26T20:40:22.669Z,0.73
2019-03-26T20:42:54.970Z,0.60
2019-03-26T20:45:26.279Z,0.10
2019-03-26T20:47:57.411Z,0.30
2019-03-26T20:50:28.872Z,0.30
2019-03-26T20:53:00.430Z,0.20
2019-03-26T20:55:33.478Z,0.97
2019-03-26T20:58:05.386Z,0.37
2019-03-26T21:00:42.819Z,1.67
2019-03-26T21:03:14.201Z,0.80
2019-03-26T21:05:45.604Z,0.20
2019-03-26T21:08:17.027Z,0.10
2019-03-26T21:10:56.704Z,0.20
2019-03-26T21:13:29.446Z,0.20
2019-03-26T21:16:00.590Z,0.20
2019-03-26T21:18:31.695Z,0.27
2019-03-26T21:21:03.020Z,0.60
2019-03-26T21:23:34.179Z,0.50
2019-03-26T21:26:05.300Z,0.43
2019-03-26T21:28:36.496Z,0.20
2019-03-26T21:31:07.565Z,1.70
2019-03-26T21:33:38.583Z,0.40
2019-03-26T21:36:11.044Z,1.13
2019-03-26T21:38:45.322Z,0.20
2019-03-26T21:41:17.686Z,0.63
2019-03-26T21:44:04.180Z,1.80
2019-03-26T21:46:38.542Z,0.60
2019-03-26T21:49:09.637Z,4.23
2019-03-26T21:51:40.646Z,0.10
2019-03-26T21:54:11.736Z,0.40
2019-03-26T21:56:42.798Z,0.37
2019-03-26T21:59:13.861Z,0.10
2019-03-26T22:01:44.866Z,0.10
2019-03-26T22:04:16.062Z,0.10
2019-03-26T22:06:47.195Z,0.10
2019-03-26T22:09:18.256Z,0.70
2019-03-26T22:11:50.456Z,0.43
2019-03-26T22:14:21.640Z,2.10
2019-03-26T22:16:52.644Z,0.63
2019-03-26T22:19:28.868Z,0.10
2019-03-26T22:21:56.339Z,0.20
2019-03-26T22:24:30.090Z,0.10
2019-03-26T22:27:01.166Z,0.10
2019-03-26T22:29:32.330Z,0.10
2019-03-26T22:32:03.495Z,0.20
2019-03-26T22:34:34.453Z,5.10
2019-03-26T22:37:05.495Z,0.10
2019-03-26T22:39:36.404Z,2.17
2019-03-26T22:42:07.383Z,0.20
2019-03-26T22:44:38.415Z,0.10
2019-03-26T22:47:09.439Z,0.30
2019-03-26T22:49:40.543Z,0.20
2019-03-26T22:52:12.917Z,0.30
2019-03-26T22:54:44.030Z,0.20
2019-03-26T22:57:15.109Z,0.20
2019-03-26T22:59:46.106Z,0.37
2019-03-26T23:02:17.106Z,1.80
2019-03-26T23:04:48.296Z,0.37
2019-03-26T23:07:19.279Z,0.30
2019-03-26T23:09:50.614Z,0.20
2019-03-26T23:12:21.679Z,0.20
2019-03-26T23:14:52.776Z,0.30
2019-03-26T23:17:24.276Z,0.40
2019-03-26T23:19:55.343Z,0.20
2019-03-26T23:22:26.360Z,0.20
2019-03-26T23:24:57.320Z,0.10
2019-03-26T23:27:28.513Z,0.10
2019-03-26T23:29:59.542Z,1.00
2019-03-26T23:32:30.682Z,0.80
2019-03-26T23:35:01.761Z,0.27
2019-03-26T23:37:32.910Z,0.10
2019-03-26T23:40:04.451Z,0.50
2019-03-26T23:42:35.475Z,0.30
2019-03-26T23:45:07.881Z,1.37
2019-03-26T23:47:38.880Z,0.20
2019-03-26T23:50:10.497Z,0.23
2019-03-26T23:52:41.549Z,0.20
2019-03-26T23:55:13.695Z,0.80
2019-03-26T23:57:44.678Z,0.40
